sensor_id;sensor_type;location;lat;lon;timestamp;pressure;altitude;pressure_sealevel;temperature;humidity
6347;BME280;3206;42.666;23.600;2022-11-13T00:01:52;96600.94;;;9.80;100.00
6347;BME280;3206;42.666;23.600;2022-11-13T00:04:18;96607.34;;;9.93;100.00
6347;BME280;3206;42.666;23.600;2022-11-13T00:06:45;96593.13;;;9.84;100.00
6347;BME280;3206;42.666;23.600;2022-11-13T00:09:12;96590.78;;;9.69;100.00
6347;BME280;3206;42.666;23.600;2022-11-13T00:11:38;96587.41;;;9.90;100.00
6347;BME280;3206;42.666;23.600;2022-11-13T00:14:05;96593.91;;;9.84;100.00
6347;BME280;3206;42.666;23.600;2022-11-13T00:16:32;96591.25;;;9.84;100.00
6347;BME280;3206;42.666;23.600;2022-11-13T00:19:00;96599.97;;;9.76;100.00
6347;BME280;3206;42.666;23.600;2022-11-13T00:21:26;96591.25;;;9.71;100.00
6347;BME280;3206;42.666;23.600;2022-11-13T00:23:54;96584.63;;;9.68;100.00
6347;BME280;3206;42.666;23.600;2022-11-13T00:26:23;96588.22;;;9.64;100.00
6347;BME280;3206;42.666;23.600;2022-11-13T00:28:52;96587.69;;;9.62;100.00
6347;BME280;3206;42.666;23.600;2022-11-13T00:31:19;96580.41;;;9.54;100.00
6347;BME280;3206;42.666;23.600;2022-11-13T00:33:45;96583.19;;;9.49;100.00
6347;BME280;3206;42.666;23.600;2022-11-13T00:36:16;96571.72;;;9.48;100.00
6347;BME280;3206;42.666;23.600;2022-11-13T00:38:43;96572.78;;;9.47;100.00
6347;BME280;3206;42.666;23.600;2022-11-13T00:41:10;96574.47;;;9.43;100.00
6347;BME280;3206;42.666;23.600;2022-11-13T00:43:37;96560.03;;;9.58;100.00
6347;BME280;3206;42.666;23.600;2022-11-13T00:46:04;96564.78;;;9.61;100.00
6347;BME280;3206;42.666;23.600;2022-11-13T00:48:32;96559.16;;;9.62;100.00
6347;BME280;3206;42.666;23.600;2022-11-13T00:50:59;96558.66;;;9.74;100.00
6347;BME280;3206;42.666;23.600;2022-11-13T00:53:27;96564.69;;;9.79;100.00
6347;BME280;3206;42.666;23.600;2022-11-13T00:55:53;96559.63;;;9.78;100.00
6347;BME280;3206;42.666;23.600;2022-11-13T00:58:20;96562.56;;;9.90;100.00
6347;BME280;3206;42.666;23.600;2022-11-13T01:00:47;96564.63;;;9.93;100.00
6347;BME280;3206;42.666;23.600;2022-11-13T01:03:16;96567.41;;;10.01;100.00
6347;BME280;3206;42.666;23.600;2022-11-13T01:05:44;96571.59;;;10.07;100.00
6347;BME280;3206;42.666;23.600;2022-11-13T01:08:13;96569.88;;;10.11;100.00
6347;BME280;3206;42.666;23.600;2022-11-13T01:10:43;96558.22;;;9.94;100.00
6347;BME280;3206;42.666;23.600;2022-11-13T01:13:11;96582.91;;;10.13;100.00
6347;BME280;3206;42.666;23.600;2022-11-13T01:15:38;96580.16;;;10.18;100.00
6347;BME280;3206;42.666;23.600;2022-11-13T01:18:05;96572.03;;;10.23;100.00
6347;BME280;3206;42.666;23.600;2022-11-13T01:20:31;96577.84;;;10.25;100.00
6347;BME280;3206;42.666;23.600;2022-11-13T01:22:58;96575.19;;;10.25;100.00
6347;BME280;3206;42.666;23.600;2022-11-13T01:25:26;96572.41;;;10.30;100.00
6347;BME280;3206;42.666;23.600;2022-11-13T01:27:54;96579.91;;;10.28;100.00
6347;BME280;3206;42.666;23.600;2022-11-13T01:30:20;96569.16;;;10.19;100.00
6347;BME280;3206;42.666;23.600;2022-11-13T01:32:47;96567.50;;;10.23;100.00
6347;BME280;3206;42.666;23.600;2022-11-13T01:35:14;96569.47;;;10.18;100.00
6347;BME280;3206;42.666;23.600;2022-11-13T01:37:41;96561.81;;;10.03;100.00
6347;BME280;3206;42.666;23.600;2022-11-13T01:40:10;96558.88;;;10.13;100.00
6347;BME280;3206;42.666;23.600;2022-11-13T01:42:37;96551.97;;;10.12;100.00
6347;BME280;3206;42.666;23.600;2022-11-13T01:48:08;96542.69;;;9.96;100.00
6347;BME280;3206;42.666;23.600;2022-11-13T01:50:35;96540.38;;;9.81;100.00
6347;BME280;3206;42.666;23.600;2022-11-13T01:53:02;96544.22;;;9.75;100.00
6347;BME280;3206;42.666;23.600;2022-11-13T01:55:28;96529.22;;;9.65;100.00
6347;BME280;3206;42.666;23.600;2022-11-13T01:57:56;96534.66;;;9.60;100.00
6347;BME280;3206;42.666;23.600;2022-11-13T02:00:23;96524.88;;;9.56;100.00
6347;BME280;3206;42.666;23.600;2022-11-13T02:02:50;96520.53;;;9.60;100.00
6347;BME280;3206;42.666;23.600;2022-11-13T02:05:18;96519.53;;;9.56;100.00
6347;BME280;3206;42.666;23.600;2022-11-13T02:07:45;96528.63;;;9.55;100.00
6347;BME280;3206;42.666;23.600;2022-11-13T02:10:12;96529.25;;;9.52;100.00
6347;BME280;3206;42.666;23.600;2022-11-13T02:12:41;96521.91;;;9.44;100.00
6347;BME280;3206;42.666;23.600;2022-11-13T02:15:09;96522.94;;;9.48;100.00
6347;BME280;3206;42.666;23.600;2022-11-13T02:17:41;96523.31;;;9.41;100.00
6347;BME280;3206;42.666;23.600;2022-11-13T02:20:09;96526.06;;;9.36;100.00
6347;BME280;3206;42.666;23.600;2022-11-13T02:22:43;96526.28;;;9.40;100.00
6347;BME280;3206;42.666;23.600;2022-11-13T02:25:17;96518.75;;;9.42;100.00
6347;BME280;3206;42.666;23.600;2022-11-13T02:27:47;96519.47;;;9.47;100.00
6347;BME280;3206;42.666;23.600;2022-11-13T02:30:17;96521.63;;;9.45;100.00
6347;BME280;3206;42.666;23.600;2022-11-13T02:32:46;96518.09;;;9.50;100.00
6347;BME280;3206;42.666;23.600;2022-11-13T02:35:16;96522.50;;;9.54;100.00
6347;BME280;3206;42.666;23.600;2022-11-13T02:37:45;96526.56;;;9.52;100.00
6347;BME280;3206;42.666;23.600;2022-11-13T02:40:12;96519.34;;;9.52;100.00
6347;BME280;3206;42.666;23.600;2022-11-13T02:42:40;96513.84;;;9.49;100.00
6347;BME280;3206;42.666;23.600;2022-11-13T02:45:07;96501.19;;;9.41;100.00
6347;BME280;3206;42.666;23.600;2022-11-13T02:47:34;96514.00;;;9.52;100.00
6347;BME280;3206;42.666;23.600;2022-11-13T02:50:01;96518.78;;;9.55;100.00
6347;BME280;3206;42.666;23.600;2022-11-13T02:52:29;96526.66;;;9.60;100.00
6347;BME280;3206;42.666;23.600;2022-11-13T02:54:56;96523.88;;;9.65;100.00
6347;BME280;3206;42.666;23.600;2022-11-13T02:57:22;96517.78;;;9.65;100.00
6347;BME280;3206;42.666;23.600;2022-11-13T02:59:50;96530.19;;;9.69;100.00
6347;BME280;3206;42.666;23.600;2022-11-13T03:02:17;96529.31;;;9.74;100.00
6347;BME280;3206;42.666;23.600;2022-11-13T03:04:44;96539.84;;;9.79;100.00
6347;BME280;3206;42.666;23.600;2022-11-13T03:07:11;96528.09;;;9.80;100.00
6347;BME280;3206;42.666;23.600;2022-11-13T03:09:38;96531.84;;;9.79;100.00
6347;BME280;3206;42.666;23.600;2022-11-13T03:12:06;96531.75;;;9.84;100.00
6347;BME280;3206;42.666;23.600;2022-11-13T03:14:33;96542.44;;;9.84;100.00
6347;BME280;3206;42.666;23.600;2022-11-13T03:17:02;96539.03;;;9.92;100.00
6347;BME280;3206;42.666;23.600;2022-11-13T03:19:28;96547.75;;;9.97;100.00
6347;BME280;3206;42.666;23.600;2022-11-13T03:21:55;96550.59;;;10.01;100.00
6347;BME280;3206;42.666;23.600;2022-11-13T03:24:22;96543.69;;;10.00;100.00
6347;BME280;3206;42.666;23.600;2022-11-13T03:26:48;96544.22;;;10.02;100.00
6347;BME280;3206;42.666;23.600;2022-11-13T03:29:15;96545.06;;;10.11;100.00
6347;BME280;3206;42.666;23.600;2022-11-13T03:31:41;96547.72;;;10.11;100.00
6347;BME280;3206;42.666;23.600;2022-11-13T03:34:09;96544.97;;;10.16;100.00
6347;BME280;3206;42.666;23.600;2022-11-13T03:36:36;96544.78;;;10.12;100.00
6347;BME280;3206;42.666;23.600;2022-11-13T03:39:03;96550.03;;;10.04;100.00
6347;BME280;3206;42.666;23.600;2022-11-13T03:41:30;96547.72;;;10.11;100.00
6347;BME280;3206;42.666;23.600;2022-11-13T03:43:56;96543.19;;;10.11;100.00
6347;BME280;3206;42.666;23.600;2022-11-13T03:46:23;96548.13;;;10.18;100.00
6347;BME280;3206;42.666;23.600;2022-11-13T03:48:50;96548.59;;;10.20;100.00
6347;BME280;3206;42.666;23.600;2022-11-13T03:51:18;96547.50;;;10.21;100.00
6347;BME280;3206;42.666;23.600;2022-11-13T03:53:44;96549.09;;;10.22;100.00
6347;BME280;3206;42.666;23.600;2022-11-13T03:56:11;96550.31;;;10.16;100.00
6347;BME280;3206;42.666;23.600;2022-11-13T03:58:38;96548.53;;;10.11;100.00
6347;BME280;3206;42.666;23.600;2022-11-13T04:01:04;96550.88;;;10.13;100.00
6347;BME280;3206;42.666;23.600;2022-11-13T04:03:31;96553.25;;;10.14;100.00
6347;BME280;3206;42.666;23.600;2022-11-13T04:05:58;96550.31;;;10.16;100.00
6347;BME280;3206;42.666;23.600;2022-11-13T04:08:26;96555.84;;;10.06;100.00
6347;BME280;3206;42.666;23.600;2022-11-13T04:10:52;96559.97;;;10.12;100.00
6347;BME280;3206;42.666;23.600;2022-11-13T04:13:19;96556.34;;;9.94;100.00
6347;BME280;3206;42.666;23.600;2022-11-13T04:15:46;96556.28;;;9.86;100.00
6347;BME280;3206;42.666;23.600;2022-11-13T04:18:13;96554.00;;;10.06;100.00
6347;BME280;3206;42.666;23.600;2022-11-13T04:20:39;96551.50;;;10.10;100.00
6347;BME280;3206;42.666;23.600;2022-11-13T04:23:06;96544.97;;;10.16;100.00
6347;BME280;3206;42.666;23.600;2022-11-13T04:25:38;96550.09;;;10.12;100.00
6347;BME280;3206;42.666;23.600;2022-11-13T04:28:04;96547.38;;;10.04;100.00
6347;BME280;3206;42.666;23.600;2022-11-13T04:30:31;96541.63;;;9.97;100.00
6347;BME280;3206;42.666;23.600;2022-11-13T04:32:58;96551.78;;;9.95;100.00
6347;BME280;3206;42.666;23.600;2022-11-13T04:35:24;96541.03;;;9.86;100.00
6347;BME280;3206;42.666;23.600;2022-11-13T04:37:51;96542.44;;;9.84;100.00
6347;BME280;3206;42.666;23.600;2022-11-13T04:40:18;96540.19;;;9.77;100.00
6347;BME280;3206;42.666;23.600;2022-11-13T04:42:46;96546.59;;;9.76;100.00
6347;BME280;3206;42.666;23.600;2022-11-13T04:45:15;96543.63;;;9.64;100.00
6347;BME280;3206;42.666;23.600;2022-11-13T04:47:42;96537.72;;;9.54;100.00
6347;BME280;3206;42.666;23.600;2022-11-13T04:50:10;96547.19;;;9.60;100.00
6347;BME280;3206;42.666;23.600;2022-11-13T04:52:36;96541.00;;;9.51;100.00
6347;BME280;3206;42.666;23.600;2022-11-13T04:55:05;96541.09;;;9.19;100.00
6347;BME280;3206;42.666;23.600;2022-11-13T04:57:32;96543.44;;;9.07;100.00
6347;BME280;3206;42.666;23.600;2022-11-13T05:00:00;96541.19;;;9.27;100.00
6347;BME280;3206;42.666;23.600;2022-11-13T05:02:27;96544.13;;;9.26;100.00
6347;BME280;3206;42.666;23.600;2022-11-13T05:04:54;96546.63;;;9.23;100.00
6347;BME280;3206;42.666;23.600;2022-11-13T05:07:20;96548.22;;;9.37;100.00
6347;BME280;3206;42.666;23.600;2022-11-13T05:09:47;96552.94;;;9.40;100.00
6347;BME280;3206;42.666;23.600;2022-11-13T05:12:14;96550.16;;;9.45;100.00
6347;BME280;3206;42.666;23.600;2022-11-13T05:14:40;96539.41;;;9.50;100.00
6347;BME280;3206;42.666;23.600;2022-11-13T05:17:10;96547.91;;;9.52;100.00
6347;BME280;3206;42.666;23.600;2022-11-13T05:19:37;96542.47;;;9.57;100.00
6347;BME280;3206;42.666;23.600;2022-11-13T05:22:04;96551.16;;;9.62;100.00
6347;BME280;3206;42.666;23.600;2022-11-13T05:24:31;96554.50;;;9.68;100.00
6347;BME280;3206;42.666;23.600;2022-11-13T05:26:58;96554.69;;;9.71;100.00
6347;BME280;3206;42.666;23.600;2022-11-13T05:29:24;96553.53;;;9.64;100.00
6347;BME280;3206;42.666;23.600;2022-11-13T05:31:51;96559.25;;;9.71;100.00
6347;BME280;3206;42.666;23.600;2022-11-13T05:34:19;96563.88;;;9.79;100.00
6347;BME280;3206;42.666;23.600;2022-11-13T05:36:46;96565.28;;;9.76;100.00
6347;BME280;3206;42.666;23.600;2022-11-13T05:39:12;96560.03;;;9.71;100.00
6347;BME280;3206;42.666;23.600;2022-11-13T05:41:39;96562.00;;;9.79;100.00
6347;BME280;3206;42.666;23.600;2022-11-13T05:44:06;96562.28;;;9.78;100.00
6347;BME280;3206;42.666;23.600;2022-11-13T05:46:33;96571.88;;;9.79;100.00
6347;BME280;3206;42.666;23.600;2022-11-13T05:49:00;96581.38;;;9.85;100.00
6347;BME280;3206;42.666;23.600;2022-11-13T05:51:30;96581.25;;;9.90;100.00
6347;BME280;3206;42.666;23.600;2022-11-13T05:53:59;96561.59;;;9.86;100.00
6347;BME280;3206;42.666;23.600;2022-11-13T05:56:27;96583.72;;;10.00;100.00
6347;BME280;3206;42.666;23.600;2022-11-13T05:58:54;96583.53;;;10.10;100.00
6347;BME280;3206;42.666;23.600;2022-11-13T06:01:23;96587.69;;;10.16;100.00
6347;BME280;3206;42.666;23.600;2022-11-13T06:03:51;96592.38;;;10.32;100.00
6347;BME280;3206;42.666;23.600;2022-11-13T06:06:19;96589.78;;;10.41;100.00
6347;BME280;3206;42.666;23.600;2022-11-13T06:08:47;96593.00;;;10.51;100.00
6347;BME280;3206;42.666;23.600;2022-11-13T06:11:16;96592.47;;;10.63;100.00
6347;BME280;3206;42.666;23.600;2022-11-13T06:13:43;96600.59;;;10.58;100.00
6347;BME280;3206;42.666;23.600;2022-11-13T06:16:12;96599.97;;;10.61;100.00
6347;BME280;3206;42.666;23.600;2022-11-13T06:18:39;96597.44;;;10.56;100.00
6347;BME280;3206;42.666;23.600;2022-11-13T06:21:08;96589.28;;;10.61;100.00
6347;BME280;3206;42.666;23.600;2022-11-13T06:23:36;96597.31;;;10.61;100.00
6347;BME280;3206;42.666;23.600;2022-11-13T06:26:07;96581.47;;;10.64;100.00
6347;BME280;3206;42.666;23.600;2022-11-13T06:28:34;96591.97;;;10.61;100.00
6347;BME280;3206;42.666;23.600;2022-11-13T06:31:02;96600.78;;;10.61;100.00
6347;BME280;3206;42.666;23.600;2022-11-13T06:33:29;96596.22;;;10.62;100.00
6347;BME280;3206;42.666;23.600;2022-11-13T06:35:56;96605.16;;;10.57;100.00
6347;BME280;3206;42.666;23.600;2022-11-13T06:38:23;96601.00;;;10.51;100.00
6347;BME280;3206;42.666;23.600;2022-11-13T06:40:50;96596.53;;;10.60;100.00
6347;BME280;3206;42.666;23.600;2022-11-13T06:43:18;96595.25;;;10.58;100.00
6347;BME280;3206;42.666;23.600;2022-11-13T06:45:44;96589.50;;;10.64;100.00
6347;BME280;3206;42.666;23.600;2022-11-13T06:48:11;96589.88;;;10.71;100.00
6347;BME280;3206;42.666;23.600;2022-11-13T06:50:38;96587.97;;;10.50;100.00
6347;BME280;3206;42.666;23.600;2022-11-13T06:53:04;96590.84;;;10.75;100.00
6347;BME280;3206;42.666;23.600;2022-11-13T06:55:31;96574.59;;;10.94;100.00
6347;BME280;3206;42.666;23.600;2022-11-13T06:57:58;96586.31;;;11.06;100.00
6347;BME280;3206;42.666;23.600;2022-11-13T07:00:26;96585.19;;;10.99;100.00
6347;BME280;3206;42.666;23.600;2022-11-13T07:02:52;96589.06;;;10.93;100.00
6347;BME280;3206;42.666;23.600;2022-11-13T07:05:19;96584.06;;;10.78;100.00
6347;BME280;3206;42.666;23.600;2022-11-13T07:07:46;96586.28;;;10.98;100.00
6347;BME280;3206;42.666;23.600;2022-11-13T07:10:12;96585.66;;;10.57;100.00
6347;BME280;3206;42.666;23.600;2022-11-13T07:12:39;96590.50;;;10.55;100.00
6347;BME280;3206;42.666;23.600;2022-11-13T07:15:06;96588.16;;;10.75;100.00
6347;BME280;3206;42.666;23.600;2022-11-13T07:17:34;96594.16;;;11.03;100.00
6347;BME280;3206;42.666;23.600;2022-11-13T07:20:01;96586.84;;;11.17;100.00
6347;BME280;3206;42.666;23.600;2022-11-13T07:22:28;96580.25;;;11.22;100.00
6347;BME280;3206;42.666;23.600;2022-11-13T07:24:55;96587.25;;;11.40;100.00
6347;BME280;3206;42.666;23.600;2022-11-13T07:27:22;96585.59;;;11.53;100.00
6347;BME280;3206;42.666;23.600;2022-11-13T07:29:49;96582.81;;;11.58;100.00
6347;BME280;3206;42.666;23.600;2022-11-13T07:32:15;96580.81;;;11.63;100.00
6347;BME280;3206;42.666;23.600;2022-11-13T07:34:43;96589.63;;;11.72;100.00
6347;BME280;3206;42.666;23.600;2022-11-13T07:37:10;96588.84;;;11.72;100.00
6347;BME280;3206;42.666;23.600;2022-11-13T07:39:37;96597.00;;;11.36;100.00
6347;BME280;3206;42.666;23.600;2022-11-13T07:42:03;96596.22;;;11.06;100.00
6347;BME280;3206;42.666;23.600;2022-11-13T07:44:30;96594.22;;;11.11;100.00
6347;BME280;3206;42.666;23.600;2022-11-13T07:46:57;96597.72;;;11.50;100.00
6347;BME280;3206;42.666;23.600;2022-11-13T07:49:23;96594.66;;;11.65;100.00
6347;BME280;3206;42.666;23.600;2022-11-13T07:51:51;96601.47;;;11.80;100.00
6347;BME280;3206;42.666;23.600;2022-11-13T07:54:18;96600.06;;;11.82;100.00
6347;BME280;3206;42.666;23.600;2022-11-13T07:56:45;96608.41;;;11.89;100.00
6347;BME280;3206;42.666;23.600;2022-11-13T07:59:12;96607.16;;;11.87;100.00
6347;BME280;3206;42.666;23.600;2022-11-13T08:01:38;96605.41;;;11.82;100.00
6347;BME280;3206;42.666;23.600;2022-11-13T08:04:05;96610.00;;;11.90;100.00
6347;BME280;3206;42.666;23.600;2022-11-13T08:06:32;96604.78;;;11.85;100.00
6347;BME280;3206;42.666;23.600;2022-11-13T08:09:03;96594.25;;;11.80;100.00
6347;BME280;3206;42.666;23.600;2022-11-13T08:11:29;96601.00;;;11.86;100.00
6347;BME280;3206;42.666;23.600;2022-11-13T08:13:56;96601.34;;;11.93;100.00
6347;BME280;3206;42.666;23.600;2022-11-13T08:16:23;96600.97;;;11.69;100.00
6347;BME280;3206;42.666;23.600;2022-11-13T08:18:50;96602.22;;;11.63;100.00
6347;BME280;3206;42.666;23.600;2022-11-13T08:21:17;96606.63;;;11.76;100.00
6347;BME280;3206;42.666;23.600;2022-11-13T10:15:10;96584.41;;;12.66;100.00
6347;BME280;3206;42.666;23.600;2022-11-13T10:17:39;96581.72;;;12.49;100.00
6347;BME280;3206;42.666;23.600;2022-11-13T10:20:12;96550.97;;;11.95;100.00
6347;BME280;3206;42.666;23.600;2022-11-13T10:22:47;96584.22;;;12.11;100.00
6347;BME280;3206;42.666;23.600;2022-11-13T10:25:17;96577.91;;;12.16;100.00
6347;BME280;3206;42.666;23.600;2022-11-13T10:27:48;96579.34;;;12.22;100.00
6347;BME280;3206;42.666;23.600;2022-11-13T10:30:18;96575.25;;;12.24;100.00
6347;BME280;3206;42.666;23.600;2022-11-13T10:32:45;96565.63;;;12.23;100.00
6347;BME280;3206;42.666;23.600;2022-11-13T10:35:22;96560.75;;;12.42;100.00
6347;BME280;3206;42.666;23.600;2022-11-13T10:37:57;96571.81;;;12.32;100.00
6347;BME280;3206;42.666;23.600;2022-11-13T10:40:27;96568.78;;;12.34;100.00
6347;BME280;3206;42.666;23.600;2022-11-13T10:43:04;96566.25;;;12.20;100.00
6347;BME280;3206;42.666;23.600;2022-11-13T10:45:32;96559.03;;;12.21;100.00
6347;BME280;3206;42.666;23.600;2022-11-13T10:47:59;96548.91;;;12.09;100.00
6347;BME280;3206;42.666;23.600;2022-11-13T10:50:27;96550.53;;;12.27;100.00
6347;BME280;3206;42.666;23.600;2022-11-13T10:52:55;96552.56;;;12.30;100.00
6347;BME280;3206;42.666;23.600;2022-11-13T10:55:37;96545.63;;;12.12;100.00
6347;BME280;3206;42.666;23.600;2022-11-13T10:58:12;96546.88;;;12.32;100.00
6347;BME280;3206;42.666;23.600;2022-11-13T11:00:43;96545.78;;;12.33;100.00
6347;BME280;3206;42.666;23.600;2022-11-13T11:03:15;96528.47;;;12.30;100.00
6347;BME280;3206;42.666;23.600;2022-11-13T11:05:53;96553.22;;;12.44;100.00
6347;BME280;3206;42.666;23.600;2022-11-13T11:08:25;96551.31;;;12.36;100.00
6347;BME280;3206;42.666;23.600;2022-11-13T11:10:56;96553.66;;;11.95;100.00
6347;BME280;3206;42.666;23.600;2022-11-13T11:13:40;96543.56;;;12.18;100.00
6347;BME280;3206;42.666;23.600;2022-11-13T11:16:11;96548.13;;;12.00;100.00
6347;BME280;3206;42.666;23.600;2022-11-13T11:18:44;96528.31;;;12.35;100.00
6347;BME280;3206;42.666;23.600;2022-11-13T11:21:16;96531.78;;;12.27;100.00
6347;BME280;3206;42.666;23.600;2022-11-13T11:23:48;96526.72;;;12.51;100.00
6347;BME280;3206;42.666;23.600;2022-11-13T11:26:22;96532.06;;;12.68;100.00
6347;BME280;3206;42.666;23.600;2022-11-13T11:28:58;96539.16;;;12.73;100.00
6347;BME280;3206;42.666;23.600;2022-11-13T11:31:34;96530.00;;;12.74;100.00
6347;BME280;3206;42.666;23.600;2022-11-13T11:34:11;96527.31;;;12.82;100.00
6347;BME280;3206;42.666;23.600;2022-11-13T11:36:48;96523.06;;;12.73;100.00
6347;BME280;3206;42.666;23.600;2022-11-13T11:39:27;96529.97;;;12.91;100.00
6347;BME280;3206;42.666;23.600;2022-11-13T11:41:59;96518.28;;;13.12;100.00
6347;BME280;3206;42.666;23.600;2022-11-13T11:44:35;96513.38;;;13.14;100.00
6347;BME280;3206;42.666;23.600;2022-11-13T11:47:13;96517.53;;;12.95;100.00
6347;BME280;3206;42.666;23.600;2022-11-13T11:49:42;96511.63;;;13.18;100.00
6347;BME280;3206;42.666;23.600;2022-11-13T11:52:25;96508.53;;;12.91;100.00
6347;BME280;3206;42.666;23.600;2022-11-13T11:55:03;96513.72;;;13.04;100.00
6347;BME280;3206;42.666;23.600;2022-11-13T11:57:43;96497.47;;;12.84;100.00
6347;BME280;3206;42.666;23.600;2022-11-13T12:00:15;96504.56;;;12.88;100.00
6347;BME280;3206;42.666;23.600;2022-11-13T12:03:09;96506.78;;;12.86;100.00
6347;BME280;3206;42.666;23.600;2022-11-13T12:05:45;96507.78;;;12.56;100.00
6347;BME280;3206;42.666;23.600;2022-11-13T12:08:22;96497.84;;;12.74;100.00
6347;BME280;3206;42.666;23.600;2022-11-13T12:10:58;96504.66;;;12.20;100.00
6347;BME280;3206;42.666;23.600;2022-11-13T12:13:30;96505.44;;;12.55;100.00
6347;BME280;3206;42.666;23.600;2022-11-13T12:16:04;96502.78;;;12.46;100.00
6347;BME280;3206;42.666;23.600;2022-11-13T12:18:41;96497.72;;;12.19;100.00
6347;BME280;3206;42.666;23.600;2022-11-13T12:21:20;96496.63;;;12.37;100.00
6347;BME280;3206;42.666;23.600;2022-11-13T12:24:04;96492.66;;;12.69;100.00
6347;BME280;3206;42.666;23.600;2022-11-13T12:26:38;96492.16;;;12.67;100.00
6347;BME280;3206;42.666;23.600;2022-11-13T12:29:22;96490.31;;;12.42;100.00
6347;BME280;3206;42.666;23.600;2022-11-13T12:32:00;96485.38;;;12.69;100.00
6347;BME280;3206;42.666;23.600;2022-11-13T12:34:38;96485.38;;;12.69;100.00
6347;BME280;3206;42.666;23.600;2022-11-13T12:37:12;96486.19;;;12.70;100.00
6347;BME280;3206;42.666;23.600;2022-11-13T12:39:45;96480.81;;;12.70;100.00
6347;BME280;3206;42.666;23.600;2022-11-13T12:42:19;96489.78;;;12.82;100.00
6347;BME280;3206;42.666;23.600;2022-11-13T12:44:55;96484.22;;;12.87;100.00
6347;BME280;3206;42.666;23.600;2022-11-13T12:47:26;96464.88;;;12.73;100.00
6347;BME280;3206;42.666;23.600;2022-11-13T12:50:03;96483.47;;;12.95;100.00
6347;BME280;3206;42.666;23.600;2022-11-13T12:52:30;96468.22;;;13.16;100.00
6347;BME280;3206;42.666;23.600;2022-11-13T12:55:05;96489.47;;;13.29;100.00
6347;BME280;3206;42.666;23.600;2022-11-13T12:57:33;96479.53;;;13.30;100.00
6347;BME280;3206;42.666;23.600;2022-11-13T13:00:19;96488.66;;;13.00;100.00
6347;BME280;3206;42.666;23.600;2022-11-13T13:02:54;96488.53;;;13.25;100.00
6347;BME280;3206;42.666;23.600;2022-11-13T13:05:29;96488.03;;;12.95;100.00
6347;BME280;3206;42.666;23.600;2022-11-13T13:08:43;96481.66;;;13.16;100.00
6347;BME280;3206;42.666;23.600;2022-11-13T13:11:16;96441.56;;;12.65;100.00
6347;BME280;3206;42.666;23.600;2022-11-13T13:13:49;96479.66;;;12.96;100.00
6347;BME280;3206;42.666;23.600;2022-11-13T13:16:24;96472.47;;;13.17;100.00
6347;BME280;3206;42.666;23.600;2022-11-13T13:18:51;96480.75;;;13.04;100.00
6347;BME280;3206;42.666;23.600;2022-11-13T13:21:20;96449.38;;;12.87;100.00
6347;BME280;3206;42.666;23.600;2022-11-13T13:23:48;96481.75;;;13.28;100.00
6347;BME280;3206;42.666;23.600;2022-11-13T13:26:18;96485.41;;;13.23;100.00
6347;BME280;3206;42.666;23.600;2022-11-13T13:28:48;96476.34;;;12.99;100.00
6347;BME280;3206;42.666;23.600;2022-11-13T13:31:27;96483.88;;;13.14;100.00
6347;BME280;3206;42.666;23.600;2022-11-13T13:34:03;96484.16;;;13.13;100.00
6347;BME280;3206;42.666;23.600;2022-11-13T13:36:39;96477.59;;;13.02;100.00
6347;BME280;3206;42.666;23.600;2022-11-13T13:39:18;96471.91;;;13.03;100.00
6347;BME280;3206;42.666;23.600;2022-11-13T13:42:01;96454.34;;;12.60;100.00
6347;BME280;3206;42.666;23.600;2022-11-13T13:44:40;96466.88;;;12.85;100.00
6347;BME280;3206;42.666;23.600;2022-11-13T13:47:13;96462.81;;;12.70;100.00
6347;BME280;3206;42.666;23.600;2022-11-13T13:49:44;96464.81;;;12.90;100.00
6347;BME280;3206;42.666;23.600;2022-11-13T13:52:14;96462.59;;;12.92;100.00
6347;BME280;3206;42.666;23.600;2022-11-13T13:54:41;96460.75;;;12.84;100.00
6347;BME280;3206;42.666;23.600;2022-11-13T13:57:12;96451.13;;;12.83;100.00
6347;BME280;3206;42.666;23.600;2022-11-13T13:59:40;96456.16;;;12.93;100.00
6347;BME280;3206;42.666;23.600;2022-11-13T14:02:14;96452.38;;;12.86;100.00
6347;BME280;3206;42.666;23.600;2022-11-13T14:04:43;96453.16;;;12.86;100.00
6347;BME280;3206;42.666;23.600;2022-11-13T14:07:21;96453.34;;;13.27;100.00
6347;BME280;3206;42.666;23.600;2022-11-13T14:09:48;96463.16;;;13.52;100.00
6347;BME280;3206;42.666;23.600;2022-11-13T14:12:17;96446.88;;;13.98;100.00
6347;BME280;3206;42.666;23.600;2022-11-13T14:14:44;96444.00;;;14.44;100.00
6347;BME280;3206;42.666;23.600;2022-11-13T14:17:19;96441.38;;;14.68;100.00
6347;BME280;3206;42.666;23.600;2022-11-13T14:19:50;96448.47;;;14.84;100.00
6347;BME280;3206;42.666;23.600;2022-11-13T14:22:19;96443.88;;;14.85;100.00
6347;BME280;3206;42.666;23.600;2022-11-13T14:24:49;96448.59;;;14.88;100.00
6347;BME280;3206;42.666;23.600;2022-11-13T14:27:21;96447.91;;;14.79;100.00
6347;BME280;3206;42.666;23.600;2022-11-13T14:29:50;96448.75;;;14.71;100.00
6347;BME280;3206;42.666;23.600;2022-11-13T14:32:19;96452.69;;;14.41;100.00
6347;BME280;3206;42.666;23.600;2022-11-13T14:34:48;96455.78;;;14.10;100.00
6347;BME280;3206;42.666;23.600;2022-11-13T14:37:26;96448.84;;;13.89;100.00
6347;BME280;3206;42.666;23.600;2022-11-13T14:39:56;96442.69;;;13.68;100.00
6347;BME280;3206;42.666;23.600;2022-11-13T14:42:26;96443.03;;;13.37;100.00
6347;BME280;3206;42.666;23.600;2022-11-13T14:45:05;96435.72;;;13.09;100.00
6347;BME280;3206;42.666;23.600;2022-11-13T14:47:38;96445.75;;;12.83;100.00
6347;BME280;3206;42.666;23.600;2022-11-13T14:50:18;96434.47;;;12.61;100.00
6347;BME280;3206;42.666;23.600;2022-11-13T14:52:59;96434.53;;;12.35;100.00
6347;BME280;3206;42.666;23.600;2022-11-13T14:55:28;96432.66;;;12.10;100.00
6347;BME280;3206;42.666;23.600;2022-11-13T14:57:54;96420.06;;;11.77;100.00
6347;BME280;3206;42.666;23.600;2022-11-13T15:00:31;96431.53;;;11.60;100.00
6347;BME280;3206;42.666;23.600;2022-11-13T15:02:59;96411.34;;;11.37;100.00
6347;BME280;3206;42.666;23.600;2022-11-13T15:05:26;96414.31;;;11.27;100.00
6347;BME280;3206;42.666;23.600;2022-11-13T15:07:55;96413.50;;;11.18;100.00
6347;BME280;3206;42.666;23.600;2022-11-13T15:10:25;96415.97;;;10.98;100.00